Time;durP1;ratioP1;P1;durP2;ratioP2;P2;SDS_P1;SDS_P2;PMS_P1;PMS_P2;Temp;Humidity;BMP_temperature;BMP_pressure;BME280_temperature;BME280_humidity;BME280_pressure;Samples;Min_cycle;Max_cycle;Signal;HPM_P1;HPM_P2
2023/06/11 00:01:41;;;;;;;76.37;16.07;;;21.90;1.00;;;;;;5041435;28;20415;-83
2023/06/11 00:04:14;;;;;;;80.60;17.30;;;21.70;3.70;;;;;;5059368;28;20879;-83
2023/06/11 00:06:49;;;;;;;75.17;17.33;;;21.70;5.00;;;;;;5040623;28;20427;-83
2023/06/11 00:09:22;;;;;;;75.80;18.47;;;21.60;9.60;;;;;;5041554;28;20409;-82
2023/06/11 00:11:53;;;;;;;76.60;18.10;;;21.50;9.80;;;;;;5059717;28;20807;-82
2023/06/11 00:14:25;;;;;;;76.50;18.33;;;21.50;16.00;;;;;;5041237;28;20454;-83
2023/06/11 00:16:51;;;;;;;78.37;20.87;;;21.50;9.10;;;;;;5059244;28;20516;-82
2023/06/11 00:19:19;;;;;;;78.20;19.90;;;21.50;13.50;;;;;;5059474;28;20403;-83
2023/06/11 00:21:53;;;;;;;77.47;19.20;;;21.50;12.50;;;;;;5058600;28;20295;-82
2023/06/11 00:24:19;;;;;;;76.60;17.80;;;21.50;16.00;;;;;;5040262;28;20411;-82
2023/06/11 00:26:52;;;;;;;75.33;18.37;;;21.40;21.70;;;;;;5058790;28;20438;-82
2023/06/11 00:29:21;;;;;;;77.77;20.90;;;21.40;19.50;;;;;;5058957;28;20153;-82
2023/06/11 00:31:50;;;;;;;76.93;20.60;;;21.30;23.40;;;;;;5058558;28;20403;-82
2023/06/11 00:34:19;;;;;;;83.00;19.40;;;21.30;21.00;;;;;;5058983;28;20490;-82
2023/06/11 00:36:47;;;;;;;75.60;17.10;;;21.30;21.40;;;;;;5059356;28;20944;-82
2023/06/11 00:39:13;;;;;;;75.87;17.43;;;21.40;18.80;;;;;;5040741;28;20433;-81
2023/06/11 00:42:03;;;;;;;78.67;18.90;;;21.40;20.40;;;;;;5040132;28;20411;-83
2023/06/11 00:44:29;;;;;;;77.43;19.80;;;21.20;26.40;;;;;;5059021;28;20874;-82
2023/06/11 00:47:15;;;;;;;75.60;17.40;;;21.20;27.00;;;;;;5058752;28;20768;-82
2023/06/11 00:49:46;;;;;;;74.07;16.90;;;21.30;21.20;;;;;;5041032;28;20437;-82
2023/06/11 00:52:18;;;;;;;76.00;16.90;;;21.30;22.50;;;;;;5058976;28;20879;-82
2023/06/11 00:54:52;;;;;;;75.27;16.43;;;21.20;22.40;;;;;;5058311;28;20435;-82
2023/06/11 00:57:17;;;;;;;74.57;14.83;;;21.30;19.40;;;;;;5058389;28;20807;-82
2023/06/11 00:59:50;;;;;;;78.50;15.50;;;21.30;21.60;;;;;;5040219;28;20403;-82
2023/06/11 01:02:42;;;;;;;75.40;15.07;;;21.40;16.40;;;;;;5058710;28;20402;-84
2023/06/11 01:05:08;;;;;;;74.70;15.20;;;21.40;16.40;;;;;;5040428;28;20400;-83
2023/06/11 01:07:37;;;;;;;74.30;13.30;;;21.30;24.00;;;;;;5057914;28;20510;-82
2023/06/11 01:10:03;;;;;;;76.80;14.07;;;21.20;25.10;;;;;;5058079;28;20442;-83
2023/06/11 01:12:38;;;;;;;74.60;15.20;;;21.10;29.20;;;;;;5040491;28;20464;-82
2023/06/11 01:15:04;;;;;;;74.80;13.07;;;21.10;21.40;;;;;;5039423;28;20451;-84
2023/06/11 01:17:52;;;;;;;74.80;13.30;;;21.20;18.10;;;;;;5040221;28;20469;-82
2023/06/11 01:20:25;;;;;;;72.77;13.33;;;21.00;25.40;;;;;;5058003;28;20380;-82
2023/06/11 01:23:06;;;;;;;72.47;12.50;;;21.00;22.90;;;;;;5058112;28;20497;-84
2023/06/11 01:25:32;;;;;;;72.57;12.80;;;21.00;24.30;;;;;;5040441;28;20418;-84
2023/06/11 01:28:05;;;;;;;74.23;11.77;;;21.10;21.70;;;;;;5058104;28;20492;-84
2023/06/11 01:30:34;;;;;;;75.17;13.03;;;21.10;18.10;;;;;;5039592;28;20532;-84
2023/06/11 01:33:00;;;;;;;75.00;14.13;;;21.10;14.10;;;;;;5039780;28;20407;-84
2023/06/11 01:35:27;;;;;;;73.90;13.37;;;21.10;14.10;;;;;;5057977;28;20439;-84
2023/06/11 01:37:56;;;;;;;73.57;14.53;;;21.00;16.50;;;;;;5039636;28;20427;-84
2023/06/11 01:40:26;;;;;;;73.37;13.80;;;21.10;14.40;;;;;;5039906;28;20400;-84
2023/06/11 01:42:52;;;;;;;73.90;12.40;;;21.00;23.60;;;;;;5040699;28;20465;-84
2023/06/11 01:45:18;;;;;;;73.90;13.97;;;21.00;19.00;;;;;;5039875;28;20488;-83
2023/06/11 01:47:49;;;;;;;73.60;12.77;;;21.00;13.40;;;;;;5039455;28;20439;-84
2023/06/11 01:50:16;;;;;;;73.80;13.73;;;21.00;15.80;;;;;;5039980;28;20404;-84
2023/06/11 01:52:41;;;;;;;74.13;13.00;;;21.00;12.90;;;;;;5057451;28;20875;-84
2023/06/11 01:55:08;;;;;;;74.73;11.93;;;21.00;20.00;;;;;;5057257;28;20439;-83
2023/06/11 01:57:34;;;;;;;73.17;12.27;;;21.10;18.30;;;;;;5056650;28;20560;-84
2023/06/11 02:00:00;;;;;;;75.43;13.27;;;21.00;21.90;;;;;;5057326;28;20827;-83
2023/06/11 02:02:31;;;;;;;71.53;11.10;;;21.00;20.00;;;;;;5040126;28;20450;-83
2023/06/11 02:04:57;;;;;;;74.10;13.30;;;21.00;21.40;;;;;;5039523;28;20165;-83
2023/06/11 02:07:23;;;;;;;72.97;11.63;;;21.10;12.60;;;;;;5056967;28;20423;-84
2023/06/11 02:09:48;;;;;;;72.60;12.00;;;21.10;17.40;;;;;;5056940;28;20426;-84
2023/06/11 02:12:14;;;;;;;72.03;11.13;;;21.00;17.30;;;;;;5057344;28;20168;-84
2023/06/11 02:14:40;;;;;;;74.60;12.43;;;21.00;14.50;;;;;;5039201;28;20189;-84
2023/06/11 02:17:05;;;;;;;74.10;12.90;;;21.00;13.40;;;;;;5039217;28;20185;-84
2023/06/11 02:19:31;;;;;;;74.53;12.90;;;21.00;10.50;;;;;;5039345;28;20165;-84
2023/06/11 02:21:57;;;;;;;74.27;13.10;;;21.00;9.80;;;;;;5057142;28;20168;-84
2023/06/11 02:24:22;;;;;;;72.87;12.70;;;21.00;9.80;;;;;;5038878;28;20218;-84
2023/06/11 02:26:48;;;;;;;73.90;13.10;;;21.10;14.20;;;;;;5059532;28;20184;-83
2023/06/11 02:29:14;;;;;;;74.37;13.20;;;21.00;9.10;;;;;;5043269;28;20172;-84
2023/06/11 02:31:39;;;;;;;73.53;15.43;;;21.00;10.60;;;;;;5061510;28;20255;-83
2023/06/11 02:34:05;;;;;;;75.10;15.47;;;20.90;7.90;;;;;;5061032;28;20188;-84
2023/06/11 02:36:30;;;;;;;73.37;13.10;;;20.80;7.00;;;;;;5060640;28;20181;-84
2023/06/11 02:38:56;;;;;;;72.93;13.03;;;20.90;11.20;;;;;;5061834;28;20192;-84
2023/06/11 02:41:22;;;;;;;73.20;13.47;;;20.90;8.00;;;;;;5061249;28;20165;-84
2023/06/11 02:43:47;;;;;;;75.57;13.17;;;20.90;8.00;;;;;;5061165;28;20164;-84
2023/06/11 02:46:13;;;;;;;73.47;12.20;;;20.90;8.70;;;;;;5061145;28;20214;-83
2023/06/11 02:48:39;;;;;;;75.13;14.27;;;20.90;9.40;;;;;;5042632;28;20182;-84
2023/06/11 02:51:04;;;;;;;74.20;12.97;;;21.00;8.00;;;;;;5061221;28;20165;-84
2023/06/11 02:53:30;;;;;;;75.40;12.30;;;21.00;12.10;;;;;;5060941;28;20188;-84
2023/06/11 02:55:56;;;;;;;73.37;11.43;;;20.90;9.60;;;;;;5042747;28;20234;-84
2023/06/11 02:58:21;;;;;;;74.17;11.83;;;20.90;9.10;;;;;;5060505;28;20192;-83
2023/06/11 03:00:47;;;;;;;70.87;10.87;;;20.90;10.90;;;;;;5060636;28;20167;-83
2023/06/11 03:03:12;;;;;;;74.20;12.27;;;20.80;15.70;;;;;;5042759;28;20172;-83
2023/06/11 03:05:38;;;;;;;72.37;11.43;;;20.80;15.10;;;;;;5060438;28;20214;-84
2023/06/11 03:08:04;;;;;;;72.80;12.70;;;20.90;11.80;;;;;;5042199;28;20183;-83
2023/06/11 03:10:30;;;;;;;71.80;10.20;;;20.80;15.10;;;;;;5060866;28;20153;-83
2023/06/11 03:12:56;;;;;;;72.50;11.63;;;20.70;16.20;;;;;;5060642;28;20723;-84
2023/06/11 03:15:21;;;;;;;71.77;11.27;;;20.80;15.90;;;;;;5042193;28;20196;-83
2023/06/11 03:17:47;;;;;;;73.10;11.50;;;20.80;20.10;;;;;;5060366;28;20260;-83
2023/06/11 03:20:13;;;;;;;73.20;13.17;;;20.70;22.80;;;;;;5060628;28;20161;-84
2023/06/11 03:22:39;;;;;;;75.50;16.17;;;20.50;32.00;;;;;;5042452;28;20165;-83
2023/06/11 03:25:05;;;;;;;76.03;14.20;;;20.50;35.00;;;;;;5060039;28;20200;-83
2023/06/11 03:27:31;;;;;;;74.70;18.07;;;20.40;35.30;;;;;;5060559;28;20185;-83
2023/06/11 03:29:56;;;;;;;74.83;17.70;;;20.40;39.70;;;;;;5042247;28;20461;-84
2023/06/11 03:32:22;;;;;;;76.47;15.20;;;20.40;37.60;;;;;;5060665;28;20400;-84
2023/06/11 03:34:51;;;;;;;73.67;15.77;;;20.40;37.80;;;;;;5060053;28;20185;-83
2023/06/11 03:37:17;;;;;;;74.90;19.10;;;20.40;40.40;;;;;;5059676;28;20191;-83
2023/06/11 03:39:43;;;;;;;75.70;21.43;;;20.30;46.10;;;;;;5059689;28;20399;-84
2023/06/11 03:42:09;;;;;;;76.90;24.97;;;20.20;47.80;;;;;;5059909;28;20414;-84
2023/06/11 03:44:35;;;;;;;81.00;29.53;;;20.20;48.30;;;;;;5059330;28;20172;-83
2023/06/11 03:47:01;;;;;;;80.30;29.50;;;20.20;49.00;;;;;;5059535;28;20427;-83
2023/06/11 03:49:29;;;;;;;81.60;27.80;;;20.20;52.70;;;;;;5059778;28;20222;-84
2023/06/11 03:51:55;;;;;;;81.00;29.80;;;20.20;51.60;;;;;;5041545;28;20172;-84
2023/06/11 03:54:22;;;;;;;78.27;31.60;;;20.20;51.80;;;;;;5059572;28;20450;-83
2023/06/11 03:56:47;;;;;;;80.27;31.90;;;20.10;53.70;;;;;;5082884;22;20873;-80
2023/06/11 03:59:13;;;;;;;82.53;33.77;;;20.20;50.70;;;;;;5079518;28;20447;-81
2023/06/11 04:01:42;;;;;;;81.00;36.90;;;20.20;52.90;;;;;;5079394;28;20167;-80
2023/06/11 04:04:08;;;;;;;82.73;33.90;;;20.20;57.50;;;;;;5079331;28;20161;-81
2023/06/11 04:06:40;;;;;;;80.60;35.80;;;20.10;64.20;;;;;;5079163;28;20493;-81
2023/06/11 04:09:06;;;;;;;83.20;35.50;;;20.10;60.00;;;;;;5078840;28;20527;-80
2023/06/11 04:11:32;;;;;;;82.10;34.73;;;20.10;53.50;;;;;;5078873;28;20399;-80
2023/06/11 04:13:58;;;;;;;83.80;37.40;;;20.20;53.70;;;;;;5078618;28;20449;-80
2023/06/11 04:16:24;;;;;;;84.50;32.63;;;20.20;50.60;;;;;;5078699;28;20246;-80
2023/06/11 04:18:50;;;;;;;80.80;31.20;;;20.30;49.90;;;;;;5060798;28;20448;-80
2023/06/11 04:21:16;;;;;;;81.77;32.27;;;20.30;48.30;;;;;;5078898;28;20159;-80
2023/06/11 04:23:41;;;;;;;80.10;34.70;;;20.30;47.10;;;;;;5079024;28;20194;-80
2023/06/11 04:26:07;;;;;;;81.30;38.73;;;20.30;50.60;;;;;;5078589;28;20399;-80
2023/06/11 04:28:37;;;;;;;84.80;39.07;;;20.40;45.30;;;;;;5078323;28;20184;-80
2023/06/11 04:31:04;;;;;;;81.37;35.93;;;20.50;49.30;;;;;;5060350;28;20469;-80
2023/06/11 04:33:32;;;;;;;78.07;26.47;;;20.50;46.90;;;;;;5060838;28;20429;-80
2023/06/11 04:36:00;;;;;;;74.97;15.77;;;20.80;42.10;;;;;;5077757;28;20407;-80
2023/06/11 04:38:28;;;;;;;74.20;11.60;;;21.10;38.30;;;;;;5078229;28;20450;-80
2023/06/11 04:40:55;;;;;;;72.17;9.87;;;21.30;28.20;;;;;;5060014;28;20471;-80
2023/06/11 04:43:25;;;;;;;75.20;11.13;;;21.60;22.70;;;;;;5077982;28;20482;-80
2023/06/11 04:45:55;;;;;;;72.33;10.97;;;21.90;16.10;;;;;;5078805;28;20906;-80
2023/06/11 04:48:22;;;;;;;74.13;11.97;;;22.20;8.90;;;;;;5078394;28;20418;-80
2023/06/11 04:50:51;;;;;;;74.50;13.53;;;22.30;1.00;;;;;;5078329;28;20398;-80
2023/06/11 04:53:24;;;;;;;74.03;12.93;;;22.60;1.00;;;;;;5077840;28;20485;-80
2023/06/11 04:55:51;;;;;;;75.97;14.83;;;22.80;1.00;;;;;;5077588;28;20379;-80
2023/06/11 04:58:20;;;;;;;74.60;15.00;;;23.00;1.00;;;;;;5060692;28;20431;-80
2023/06/11 05:00:47;;;;;;;79.33;17.17;;;23.20;1.00;;;;;;5060457;28;20438;-80
2023/06/11 05:03:13;;;;;;;74.50;14.10;;;23.40;1.00;;;;;;5078344;28;20488;-80
2023/06/11 05:05:38;;;;;;;74.97;14.27;;;23.70;1.00;;;;;;5078671;28;20434;-80
2023/06/11 05:08:04;;;;;;;76.60;13.80;;;23.40;1.00;;;;;;5300764;22;20626;-80
2023/06/11 05:10:30;;;;;;;75.93;17.27;;;23.40;1.00;;;;;;5640838;22;20203;-82
2023/06/11 05:12:55;;;;;;;77.90;18.37;;;23.20;1.00;;;;;;5078156;28;20387;-80
2023/06/11 05:15:21;;;;;;;79.43;17.40;;;23.10;1.00;;;;;;5078239;28;20188;-80
2023/06/11 05:17:47;;;;;;;73.13;15.90;;;23.00;1.00;;;;;;5077873;28;20180;-80
2023/06/11 05:20:13;;;;;;;74.80;18.20;;;22.90;1.00;;;;;;5078079;28;20164;-80
2023/06/11 05:22:39;;;;;;;75.10;17.70;;;22.90;1.00;;;;;;5077197;28;20164;-80
2023/06/11 05:25:05;;;;;;;76.50;19.60;;;22.90;1.00;;;;;;5077764;28;20160;-80
2023/06/11 05:27:31;;;;;;;74.80;18.30;;;22.70;1.00;;;;;;5077902;28;20580;-80
2023/06/11 05:29:57;;;;;;;76.03;19.23;;;22.60;1.00;;;;;;5077833;28;20475;-80
2023/06/11 05:32:23;;;;;;;75.63;16.53;;;22.60;1.00;;;;;;5077363;28;20885;-80
2023/06/11 05:34:51;;;;;;;78.50;19.17;;;22.70;1.00;;;;;;5059159;28;20571;-80
2023/06/11 05:37:17;;;;;;;79.67;18.63;;;22.80;1.00;;;;;;5059611;28;20180;-80
2023/06/11 05:39:43;;;;;;;73.90;16.10;;;22.70;1.00;;;;;;5077845;28;20395;-80
2023/06/11 05:42:08;;;;;;;75.10;15.17;;;22.70;1.00;;;;;;5076432;28;20816;-80
2023/06/11 05:44:34;;;;;;;74.20;13.93;;;22.50;1.00;;;;;;5058164;28;20168;-80
2023/06/11 05:47:00;;;;;;;74.50;14.20;;;22.50;1.00;;;;;;5059031;28;20619;-80
2023/06/11 05:49:26;;;;;;;73.20;11.93;;;22.40;1.00;;;;;;5077227;28;20913;-80
2023/06/11 05:51:52;;;;;;;75.10;12.20;;;22.40;1.00;;;;;;5059605;28;20414;-80
2023/06/11 05:54:18;;;;;;;74.17;12.90;;;22.50;1.00;;;;;;5076889;28;20446;-80
2023/06/11 05:56:45;;;;;;;72.90;12.17;;;22.40;1.00;;;;;;5077090;28;20183;-80
2023/06/11 05:59:10;;;;;;;74.60;14.97;;;22.50;1.00;;;;;;5058418;28;20653;-80
2023/06/11 06:01:44;;;;;;;80.70;13.17;;;22.60;1.00;;;;;;5058496;28;20446;-80
2023/06/11 06:04:15;;;;;;;71.47;11.00;;;22.50;1.00;;;;;;5077397;28;20181;-80
2023/06/11 06:06:47;;;;;;;75.33;11.80;;;22.50;1.00;;;;;;5058778;28;20438;-80
2023/06/11 06:09:14;;;;;;;75.33;12.00;;;22.60;1.00;;;;;;5076882;28;20451;-80
2023/06/11 06:11:39;;;;;;;72.70;11.27;;;22.70;1.00;;;;;;5059014;28;20465;-80
2023/06/11 06:14:05;;;;;;;72.97;12.97;;;22.70;1.00;;;;;;5077093;28;20446;-80
2023/06/11 06:16:31;;;;;;;75.37;13.33;;;22.70;1.00;;;;;;5077769;28;20187;-80
2023/06/11 06:18:57;;;;;;;72.33;12.17;;;22.60;1.00;;;;;;5077510;28;20160;-80
2023/06/11 06:21:22;;;;;;;72.97;11.07;;;22.60;1.00;;;;;;5077791;28;20745;-80
2023/06/11 06:23:48;;;;;;;74.20;10.23;;;22.60;1.00;;;;;;5077187;28;20170;-80
2023/06/11 06:26:14;;;;;;;73.60;10.67;;;22.60;1.00;;;;;;5076701;28;20164;-80
2023/06/11 06:28:39;;;;;;;74.00;11.30;;;22.70;1.00;;;;;;5076661;28;20221;-80
2023/06/11 06:31:07;;;;;;;72.17;10.87;;;22.70;1.00;;;;;;5076791;28;20159;-80
2023/06/11 06:33:36;;;;;;;72.87;9.97;;;22.80;1.00;;;;;;5077039;28;20168;-80
2023/06/11 06:36:04;;;;;;;73.97;11.17;;;22.90;1.00;;;;;;5077528;28;20406;-80
2023/06/11 06:38:32;;;;;;;72.30;9.73;;;22.80;1.00;;;;;;5076936;28;20454;-80
2023/06/11 06:40:57;;;;;;;72.47;11.17;;;22.90;1.00;;;;;;5077394;28;20398;-80
2023/06/11 06:43:23;;;;;;;71.10;10.50;;;23.00;1.00;;;;;;5058689;28;20924;-80
2023/06/11 06:45:49;;;;;;;73.07;10.33;;;23.10;1.00;;;;;;5076947;28;20172;-80
2023/06/11 06:48:14;;;;;;;74.67;12.07;;;23.10;1.00;;;;;;5076996;28;20180;-80
2023/06/11 06:50:40;;;;;;;72.27;11.30;;;23.10;1.00;;;;;;5076598;28;20406;-80
2023/06/11 06:53:06;;;;;;;73.47;11.57;;;23.20;1.00;;;;;;5076719;28;20163;-80
2023/06/11 06:55:32;;;;;;;75.57;12.37;;;23.20;1.00;;;;;;5076146;28;20477;-80
2023/06/11 06:57:57;;;;;;;73.90;10.47;;;23.10;1.00;;;;;;5076698;28;20184;-80
2023/06/11 07:00:23;;;;;;;75.60;10.90;;;23.20;1.00;;;;;;5076596;28;20164;-80
2023/06/11 07:02:49;;;;;;;73.60;11.37;;;23.20;1.00;;;;;;5076975;28;20160;-80
2023/06/11 07:05:14;;;;;;;72.00;11.97;;;23.30;1.00;;;;;;5076747;28;20168;-80
2023/06/11 07:07:43;;;;;;;75.20;14.37;;;23.40;1.00;;;;;;5076672;28;20581;-80
2023/06/11 07:10:09;;;;;;;73.37;13.03;;;23.40;1.00;;;;;;5076590;28;20172;-80
2023/06/11 07:12:34;;;;;;;75.20;14.67;;;23.40;1.00;;;;;;5076901;28;20948;-80
2023/06/11 07:15:00;;;;;;;72.93;12.80;;;23.40;1.00;;;;;;5060485;28;20541;-81
2023/06/11 07:17:26;;;;;;;73.57;13.47;;;23.50;1.00;;;;;;5059600;28;20241;-80
2023/06/11 07:19:52;;;;;;;75.20;13.67;;;23.60;1.00;;;;;;5078447;28;20184;-81
2023/06/11 07:22:17;;;;;;;74.20;13.70;;;23.60;1.00;;;;;;5080029;28;20403;-80
2023/06/11 07:24:47;;;;;;;75.17;11.80;;;23.70;1.00;;;;;;5080559;28;20229;-81
2023/06/11 07:27:13;;;;;;;73.20;12.30;;;23.80;1.00;;;;;;5061367;28;20188;-81
2023/06/11 07:29:39;;;;;;;74.53;14.20;;;23.90;1.00;;;;;;5077959;28;20497;-81
2023/06/11 07:32:09;;;;;;;75.57;14.87;;;24.00;1.00;;;;;;5079332;28;20394;-81
2023/06/11 07:34:34;;;;;;;74.43;14.13;;;24.00;1.00;;;;;;5079517;28;20498;-81
2023/06/11 07:37:00;;;;;;;75.37;18.37;;;24.00;1.00;;;;;;5079704;28;20490;-81
2023/06/11 07:39:26;;;;;;;79.10;18.43;;;24.00;1.00;;;;;;5061313;28;20160;-81
2023/06/11 07:41:52;;;;;;;76.27;16.20;;;24.00;1.00;;;;;;5080247;28;20202;-81
2023/06/11 07:44:17;;;;;;;74.80;17.40;;;24.00;1.00;;;;;;5080406;28;20405;-81
2023/06/11 07:46:46;;;;;;;74.30;15.30;;;24.00;1.00;;;;;;5080152;28;20205;-81
2023/06/11 07:49:12;;;;;;;75.90;17.13;;;24.10;1.00;;;;;;5062089;28;20180;-81
2023/06/11 07:51:38;;;;;;;74.67;16.60;;;24.20;1.00;;;;;;5079733;28;20406;-81
2023/06/11 07:54:05;;;;;;;75.40;18.40;;;24.30;1.00;;;;;;5061811;28;20188;-82
2023/06/11 07:56:31;;;;;;;76.17;17.67;;;24.40;1.00;;;;;;5061777;28;20434;-81
2023/06/11 07:58:57;;;;;;;78.70;18.90;;;24.50;1.00;;;;;;5062075;28;20537;-81
2023/06/11 08:01:23;;;;;;;76.83;18.00;;;24.60;1.00;;;;;;5079617;28;20156;-81
2023/06/11 08:03:48;;;;;;;75.47;18.60;;;24.70;1.00;;;;;;5080352;28;20620;-81
2023/06/11 08:06:14;;;;;;;78.03;20.53;;;24.70;1.00;;;;;;5079366;28;20164;-81
2023/06/11 08:08:40;;;;;;;77.03;20.77;;;24.80;1.00;;;;;;5079073;28;20618;-81
2023/06/11 08:11:06;;;;;;;76.80;16.57;;;24.80;1.00;;;;;;5079750;28;20196;-81
2023/06/11 08:13:32;;;;;;;73.90;17.37;;;24.90;1.00;;;;;;5062120;28;20190;-81
2023/06/11 08:15:58;;;;;;;75.80;18.07;;;25.00;1.00;;;;;;5079510;28;20746;-81
2023/06/11 08:18:24;;;;;;;79.13;16.60;;;25.00;1.00;;;;;;5079647;28;20415;-81
2023/06/11 08:23:20;;;;;;;75.10;18.33;;;25.10;1.00;;;;;;5147337;23;20219;-83
2023/06/11 08:25:49;;;;;;;75.83;15.73;;;25.20;1.00;;;;;;5060255;28;20423;-83
2023/06/11 08:28:14;;;;;;;74.73;16.60;;;25.20;1.00;;;;;;5078613;28;20186;-83
2023/06/11 08:30:43;;;;;;;77.33;15.93;;;25.20;1.00;;;;;;5078738;28;20405;-83
2023/06/11 08:33:09;;;;;;;73.37;14.33;;;25.30;1.00;;;;;;5060352;28;20188;-83
2023/06/11 08:35:35;;;;;;;72.90;13.30;;;25.30;1.00;;;;;;5077765;28;20443;-82
2023/06/11 08:38:00;;;;;;;73.17;13.37;;;25.40;1.00;;;;;;5060067;28;20186;-83
2023/06/11 08:40:28;;;;;;;72.20;11.20;;;25.50;1.00;;;;;;5078279;28;20169;-82
2023/06/11 08:42:53;;;;;;;80.63;11.23;;;25.50;1.00;;;;;;5060740;28;20171;-83
2023/06/11 08:45:19;;;;;;;73.60;11.10;;;25.50;1.00;;;;;;5078642;28;20399;-83
2023/06/11 08:47:51;;;;;;;74.70;12.37;;;25.60;1.00;;;;;;5078192;28;20224;-83
2023/06/11 08:50:20;;;;;;;73.27;10.20;;;25.60;1.00;;;;;;5078107;28;20167;-82
2023/06/11 08:52:51;;;;;;;73.30;10.50;;;25.70;1.00;;;;;;5077864;28;20486;-82
2023/06/11 08:55:17;;;;;;;73.43;9.60;;;25.80;1.00;;;;;;5078399;28;20789;-82
2023/06/11 08:57:43;;;;;;;74.33;9.50;;;25.80;1.00;;;;;;5078506;28;20507;-82
2023/06/11 09:00:09;;;;;;;75.17;10.73;;;25.90;1.00;;;;;;5078363;28;20475;-82
2023/06/11 09:02:37;;;;;;;73.20;8.80;;;26.00;1.00;;;;;;5058912;28;20625;-88
2023/06/11 09:05:03;;;;;;;72.07;8.93;;;26.10;1.00;;;;;;5076372;28;20413;-86
2023/06/11 09:07:33;;;;;;;71.80;8.40;;;26.10;1.00;;;;;;5075741;28;20427;-87
2023/06/11 09:10:08;;;;;;;72.90;8.13;;;26.20;1.00;;;;;;5058875;28;20417;-87
2023/06/11 09:12:34;;;;;;;71.30;7.83;;;26.20;1.00;;;;;;5077958;28;20495;-89
2023/06/11 09:15:00;;;;;;;73.40;9.37;;;26.20;1.00;;;;;;5075259;28;20533;-89
2023/06/11 09:17:46;;;;;;;73.90;8.43;;;26.30;1.00;;;;;;5075427;28;20186;-88
2023/06/11 09:20:14;;;;;;;71.93;8.77;;;26.40;1.00;;;;;;5058242;28;20171;-88
2023/06/11 09:22:44;;;;;;;73.10;8.30;;;26.50;1.00;;;;;;5077106;28;20451;-88
2023/06/11 09:25:16;;;;;;;73.07;9.53;;;26.50;1.00;;;;;;5074730;28;20743;-86
2023/06/11 09:27:45;;;;;;;70.77;8.83;;;26.50;1.00;;;;;;5056402;28;20480;-86
2023/06/11 09:30:12;;;;;;;71.80;9.80;;;26.70;1.00;;;;;;5074322;28;20459;-86
2023/06/11 09:32:39;;;;;;;72.40;10.33;;;26.80;1.00;;;;;;5057244;28;20522;-86
2023/06/11 09:35:12;;;;;;;73.00;11.37;;;27.00;1.00;;;;;;5057358;28;20494;-86
2023/06/11 09:37:45;;;;;;;73.93;10.00;;;27.20;1.00;;;;;;5078582;28;20428;-84
2023/06/11 09:40:15;;;;;;;71.97;7.80;;;27.40;1.00;;;;;;5076768;28;20374;-84
2023/06/11 09:42:46;;;;;;;71.97;6.97;;;27.40;1.00;;;;;;5075322;28;20505;-84
2023/06/11 09:45:19;;;;;;;71.00;6.60;;;27.50;1.00;;;;;;5077862;28;20375;-84
2023/06/11 09:47:46;;;;;;;70.80;7.30;;;27.50;1.00;;;;;;5060871;28;20426;-84
2023/06/11 09:50:17;;;;;;;71.00;6.73;;;27.60;1.00;;;;;;5078159;28;20913;-84
2023/06/11 09:52:44;;;;;;;70.80;6.03;;;27.80;1.00;;;;;;5080133;28;20426;-84
2023/06/11 09:55:11;;;;;;;70.40;5.47;;;27.90;1.00;;;;;;5046826;28;20450;-84
2023/06/11 09:57:40;;;;;;;71.40;5.90;;;28.10;1.00;;;;;;5149911;22;20482;-83
2023/06/11 10:00:11;;;;;;;71.90;5.60;;;28.20;1.00;;;;;;5078607;28;20394;-83
2023/06/11 10:02:40;;;;;;;71.57;5.83;;;28.30;1.00;;;;;;5078304;28;20378;-82
2023/06/11 10:05:07;;;;;;;70.80;5.60;;;28.50;1.00;;;;;;5060149;28;20425;-83
2023/06/11 10:07:41;;;;;;;70.07;4.87;;;28.60;1.00;;;;;;5078156;28;20897;-83
2023/06/11 10:10:11;;;;;;;71.13;4.90;;;28.70;1.00;;;;;;5060354;28;20861;-83
2023/06/11 10:12:37;;;;;;;71.80;5.57;;;28.70;1.00;;;;;;5077899;28;20399;-82
2023/06/11 10:15:07;;;;;;;76.53;6.00;;;28.80;1.00;;;;;;5060104;28;20471;-82
2023/06/11 10:17:34;;;;;;;70.87;5.40;;;28.90;1.00;;;;;;5077787;28;20415;-82
2023/06/11 10:20:00;;;;;;;71.87;5.73;;;29.00;1.00;;;;;;5060763;28;20489;-82
2023/06/11 10:22:34;;;;;;;70.90;5.53;;;29.30;1.00;;;;;;5060282;28;20438;-82
2023/06/11 10:25:03;;;;;;;76.10;6.72;;;29.50;1.00;;;;;;5078411;28;20410;-83
2023/06/11 10:27:43;;;;;;;72.17;5.93;;;29.50;1.00;;;;;;5061632;28;20222;-81
2023/06/11 10:30:09;;;;;;;75.23;6.70;;;29.60;1.00;;;;;;5061954;28;20413;-83
2023/06/11 10:32:35;;;;;;;71.67;9.30;;;29.70;1.00;;;;;;5079270;28;20448;-81
2023/06/11 10:35:04;;;;;;;73.70;8.07;;;29.50;1.00;;;;;;5078536;28;20434;-81
2023/06/11 10:37:36;;;;;;;73.07;9.93;;;29.50;1.00;;;;;;5061058;28;20430;-83
2023/06/11 10:40:03;;;;;;;73.60;9.97;;;29.50;1.00;;;;;;5060222;28;20782;-81
2023/06/11 10:42:41;;;;;;;72.60;10.30;;;29.60;1.00;;;;;;5078061;28;20402;-80
2023/06/11 10:45:14;;;;;;;72.80;8.47;;;29.50;1.00;;;;;;5059871;28;20400;-80
2023/06/11 10:47:50;;;;;;;72.47;9.57;;;29.60;1.00;;;;;;5060533;28;20433;-79
2023/06/11 10:50:24;;;;;;;72.23;7.50;;;29.60;1.00;;;;;;5080582;28;20382;-81
2023/06/11 10:52:53;;;;;;;73.40;10.27;;;29.80;1.00;;;;;;5065109;28;20793;-81
2023/06/11 10:55:21;;;;;;;72.67;10.03;;;29.60;1.00;;;;;;5080384;28;20461;-81
2023/06/11 10:57:51;;;;;;;74.97;14.93;;;29.70;1.00;;;;;;5079634;28;20438;-81
2023/06/11 11:00:17;;;;;;;73.57;11.40;;;29.90;1.00;;;;;;5079534;28;20405;-80
2023/06/11 11:02:44;;;;;;;74.37;14.90;;;30.00;1.00;;;;;;5079567;28;20939;-80
2023/06/11 11:05:10;;;;;;;78.30;17.07;;;29.90;1.00;;;;;;5080374;28;20398;-78
2023/06/11 11:07:36;;;;;;;73.47;12.20;;;30.00;1.00;;;;;;5080721;28;20422;-80
2023/06/11 11:10:07;;;;;;;72.87;12.50;;;29.80;1.00;;;;;;5061265;28;20434;-81
2023/06/11 11:12:41;;;;;;;80.93;13.97;;;30.10;1.00;;;;;;5079373;28;20424;-81
2023/06/11 11:15:12;;;;;;;74.50;13.00;;;30.30;1.00;;;;;;5079393;28;20472;-80
2023/06/11 11:17:40;;;;;;;75.70;14.27;;;30.60;1.00;;;;;;5063198;28;20463;-80
2023/06/11 11:20:10;;;;;;;75.57;13.70;;;30.90;1.00;;;;;;5062879;28;20406;-81
2023/06/11 11:22:37;;;;;;;78.03;12.90;;;30.50;1.00;;;;;;5080091;28;20437;-81
2023/06/11 11:25:05;;;;;;;72.10;7.70;;;30.40;1.00;;;;;;5081346;28;20412;-84
2023/06/11 11:27:32;;;;;;;78.27;13.40;;;30.20;1.00;;;;;;5083819;28;20426;-82
2023/06/11 11:30:00;;;;;;;73.10;11.53;;;30.10;1.00;;;;;;5063825;28;20402;-82
2023/06/11 11:32:33;;;;;;;74.90;14.87;;;30.20;1.00;;;;;;5081691;28;20501;-82
2023/06/11 11:35:01;;;;;;;78.00;16.27;;;30.40;1.00;;;;;;5063948;28;21043;-82
2023/06/11 11:37:30;;;;;;;73.50;11.30;;;30.50;1.00;;;;;;5082613;28;20513;-83
2023/06/11 11:40:06;;;;;;;76.10;10.13;;;30.70;1.00;;;;;;5082339;28;20395;-82
2023/06/11 11:42:32;;;;;;;73.93;7.00;;;30.90;1.00;;;;;;5081232;28;20386;-82
2023/06/11 11:44:59;;;;;;;74.77;13.70;;;30.80;1.00;;;;;;5083394;28;20892;-80
2023/06/11 11:47:27;;;;;;;72.80;7.40;;;30.80;1.00;;;;;;5080012;28;20924;-81
2023/06/11 11:49:54;;;;;;;72.57;7.93;;;31.00;1.00;;;;;;5062283;28;20410;-80
2023/06/11 11:52:23;;;;;;;78.93;7.50;;;31.10;1.00;;;;;;5079923;28;20940;-81
2023/06/11 11:54:49;;;;;;;74.70;6.40;;;31.10;1.00;;;;;;5062539;28;20474;-80
2023/06/11 11:57:20;;;;;;;73.43;6.33;;;31.10;1.00;;;;;;5061639;28;20969;-81
2023/06/11 11:59:46;;;;;;;72.97;6.00;;;31.20;1.00;;;;;;5078978;28;20445;-81
2023/06/11 12:02:11;;;;;;;71.47;6.47;;;31.20;1.00;;;;;;5061273;28;20773;-80
2023/06/11 12:04:40;;;;;;;74.77;6.70;;;31.20;1.00;;;;;;5060831;28;20175;-80
2023/06/11 12:07:08;;;;;;;72.97;6.17;;;31.10;1.00;;;;;;5060491;28;20249;-81
2023/06/11 12:09:38;;;;;;;71.33;5.60;;;31.20;1.00;;;;;;5078284;28;20489;-80
2023/06/11 12:12:05;;;;;;;72.00;6.67;;;31.10;1.00;;;;;;5060482;28;20517;-79
2023/06/11 12:14:31;;;;;;;73.50;7.47;;;31.50;1.00;;;;;;5060722;28;20477;-79
2023/06/11 12:16:57;;;;;;;72.43;5.80;;;31.50;1.00;;;;;;5078829;28;20422;-79
2023/06/11 12:19:23;;;;;;;73.80;6.23;;;31.90;1.00;;;;;;5061604;28;20406;-81
2023/06/11 12:21:49;;;;;;;73.57;8.57;;;31.70;1.00;;;;;;5061967;28;20437;-82
2023/06/11 12:24:15;;;;;;;73.33;6.37;;;31.50;1.00;;;;;;5078682;28;20505;-79
2023/06/11 12:26:48;;;;;;;71.63;5.60;;;31.60;1.00;;;;;;5078231;28;20516;-79
2023/06/11 12:29:14;;;;;;;70.50;5.20;;;31.70;1.00;;;;;;5077859;28;20172;-79
2023/06/11 12:31:40;;;;;;;72.70;6.20;;;31.60;1.00;;;;;;5078375;28;20399;-80
2023/06/11 12:34:06;;;;;;;70.73;5.37;;;31.70;1.00;;;;;;5078377;28;20438;-79
2023/06/11 12:36:35;;;;;;;70.97;5.03;;;31.80;1.00;;;;;;5078842;28;20471;-78
2023/06/11 12:39:03;;;;;;;71.47;5.73;;;32.00;1.00;;;;;;5063241;28;20463;-80
2023/06/11 12:41:29;;;;;;;75.00;5.97;;;32.20;1.00;;;;;;5081975;28;20390;-80